sensor_id;sensor_type;location;lat;lon;timestamp;pressure;altitude;pressure_sealevel;temperature;humidity
64792;BME280;51226;47.504;19.074;2023-03-15T00:00:12;99020.72;;;11.44;65.02
64792;BME280;51226;47.504;19.074;2023-03-15T00:03:35;99028.50;;;11.41;64.84
64792;BME280;51226;47.504;19.074;2023-03-15T00:06:39;99035.38;;;11.31;65.41
64792;BME280;51226;47.504;19.074;2023-03-15T00:09:42;99044.88;;;11.27;65.63
64792;BME280;51226;47.504;19.074;2023-03-15T00:12:45;99050.81;;;11.16;66.53
64792;BME280;51226;47.504;19.074;2023-03-15T00:15:50;99055.25;;;11.21;65.49
64792;BME280;51226;47.504;19.074;2023-03-15T00:18:54;99059.50;;;11.15;65.43
64792;BME280;51226;47.504;19.074;2023-03-15T00:21:57;99061.16;;;11.09;66.02
64792;BME280;51226;47.504;19.074;2023-03-15T00:25:00;99064.78;;;11.18;65.14
64792;BME280;51226;47.504;19.074;2023-03-15T00:28:02;99061.16;;;11.09;65.59
64792;BME280;51226;47.504;19.074;2023-03-15T00:34:14;99077.59;;;11.04;65.49
64792;BME280;51226;47.504;19.074;2023-03-15T00:37:17;99058.59;;;11.11;64.27
64792;BME280;51226;47.504;19.074;2023-03-15T00:40:22;99062.84;;;11.07;63.52
64792;BME280;51226;47.504;19.074;2023-03-15T00:43:25;99054.09;;;11.02;63.77
64792;BME280;51226;47.504;19.074;2023-03-15T00:46:28;99055.00;;;11.03;63.34
64792;BME280;51226;47.504;19.074;2023-03-15T00:49:31;99060.22;;;11.03;62.74
64792;BME280;51226;47.504;19.074;2023-03-15T00:52:37;99042.75;;;10.99;62.80
64792;BME280;51226;47.504;19.074;2023-03-15T00:55:41;99049.63;;;10.93;62.60
64792;BME280;51226;47.504;19.074;2023-03-15T00:58:44;99042.50;;;10.82;63.32
64792;BME280;51226;47.504;19.074;2023-03-15T01:01:47;99032.97;;;10.85;62.08
64792;BME280;51226;47.504;19.074;2023-03-15T01:04:50;99033.78;;;10.80;62.13
64792;BME280;51226;47.504;19.074;2023-03-15T01:07:53;99038.03;;;10.74;62.29
64792;BME280;51226;47.504;19.074;2023-03-15T01:11:00;99037.12;;;10.71;62.30
64792;BME280;51226;47.504;19.074;2023-03-15T01:14:03;99044.88;;;10.66;62.25
64792;BME280;51226;47.504;19.074;2023-03-15T01:17:07;99045.75;;;10.67;62.00
64792;BME280;51226;47.504;19.074;2023-03-15T01:20:14;99041.34;;;10.63;61.37
64792;BME280;51226;47.504;19.074;2023-03-15T01:23:17;99036.97;;;10.62;61.63
64792;BME280;51226;47.504;19.074;2023-03-15T01:26:22;99039.38;;;10.48;61.61
64792;BME280;51226;47.504;19.074;2023-03-15T01:29:25;99041.09;;;10.49;61.46
64792;BME280;51226;47.504;19.074;2023-03-15T01:32:27;99025.50;;;10.52;61.15
64792;BME280;51226;47.504;19.074;2023-03-15T01:35:30;99045.69;;;10.64;60.29
64792;BME280;51226;47.504;19.074;2023-03-15T01:38:33;99038.53;;;10.50;60.78
64792;BME280;51226;47.504;19.074;2023-03-15T01:41:36;99045.97;;;10.30;61.46
64792;BME280;51226;47.504;19.074;2023-03-15T01:44:54;99043.50;;;10.36;60.86
64792;BME280;51226;47.504;19.074;2023-03-15T01:47:57;99039.16;;;10.37;60.63
64792;BME280;51226;47.504;19.074;2023-03-15T01:51:20;99041.84;;;10.42;60.09
64792;BME280;51226;47.504;19.074;2023-03-15T01:54:35;99037.38;;;10.33;60.54
64792;BME280;51226;47.504;19.074;2023-03-15T01:57:48;99038.22;;;10.32;60.25
64792;BME280;51226;47.504;19.074;2023-03-15T02:00:53;99027.00;;;10.36;59.63
64792;BME280;51226;47.504;19.074;2023-03-15T02:04:02;99038.25;;;10.33;59.58
64792;BME280;51226;47.504;19.074;2023-03-15T02:07:08;99027.78;;;10.32;59.77
64792;BME280;51226;47.504;19.074;2023-03-15T02:10:15;99038.88;;;10.22;59.80
64792;BME280;51226;47.504;19.074;2023-03-15T02:13:22;99025.84;;;10.22;59.61
64792;BME280;51226;47.504;19.074;2023-03-15T02:16:27;99030.28;;;10.27;59.29
64792;BME280;51226;47.504;19.074;2023-03-15T02:19:45;99030.22;;;10.23;59.57
64792;BME280;51226;47.504;19.074;2023-03-15T02:26:24;99031.00;;;10.18;59.02
64792;BME280;51226;47.504;19.074;2023-03-15T02:29:32;99030.88;;;10.11;59.24
64792;BME280;51226;47.504;19.074;2023-03-15T02:32:35;99039.41;;;10.04;59.55
64792;BME280;51226;47.504;19.074;2023-03-15T02:35:38;99036.97;;;10.11;59.03
64792;BME280;51226;47.504;19.074;2023-03-15T02:38:41;99041.91;;;9.96;59.54
64792;BME280;51226;47.504;19.074;2023-03-15T02:41:54;99036.59;;;9.91;60.22
64792;BME280;51226;47.504;19.074;2023-03-15T02:44:58;99046.97;;;9.90;59.93
64792;BME280;51226;47.504;19.074;2023-03-15T02:48:01;99054.84;;;9.93;60.25
64792;BME280;51226;47.504;19.074;2023-03-15T02:51:05;99056.59;;;9.94;60.24
64792;BME280;51226;47.504;19.074;2023-03-15T02:54:10;99060.00;;;9.90;60.43
64792;BME280;51226;47.504;19.074;2023-03-15T02:57:14;99060.91;;;9.92;60.49
64792;BME280;51226;47.504;19.074;2023-03-15T03:00:18;99056.59;;;9.92;60.40
64792;BME280;51226;47.504;19.074;2023-03-15T03:03:21;99065.94;;;9.82;61.03
64792;BME280;51226;47.504;19.074;2023-03-15T03:06:24;99057.22;;;9.80;61.48
64792;BME280;51226;47.504;19.074;2023-03-15T03:09:27;99069.56;;;9.89;60.88
64792;BME280;51226;47.504;19.074;2023-03-15T03:12:31;99060.69;;;9.79;61.59
64792;BME280;51226;47.504;19.074;2023-03-15T03:15:34;99063.34;;;9.82;61.53
64792;BME280;51226;47.504;19.074;2023-03-15T03:18:38;99065.13;;;9.85;61.08
64792;BME280;51226;47.504;19.074;2023-03-15T03:21:44;99066.97;;;9.91;60.88
64792;BME280;51226;47.504;19.074;2023-03-15T03:24:47;99063.50;;;9.92;60.67
64792;BME280;51226;47.504;19.074;2023-03-15T03:27:50;99060.75;;;9.82;60.78
64792;BME280;51226;47.504;19.074;2023-03-15T03:30:54;99055.63;;;9.89;60.11
64792;BME280;51226;47.504;19.074;2023-03-15T03:33:57;99061.41;;;9.72;61.52
64792;BME280;51226;47.504;19.074;2023-03-15T03:37:03;99054.56;;;9.77;60.38
64792;BME280;51226;47.504;19.074;2023-03-15T03:40:08;99057.88;;;9.70;61.20
64792;BME280;51226;47.504;19.074;2023-03-15T03:43:12;99056.22;;;9.74;60.49
64792;BME280;51226;47.504;19.074;2023-03-15T03:46:15;99056.28;;;9.77;60.25
64792;BME280;51226;47.504;19.074;2023-03-15T03:49:19;99045.75;;;9.71;60.50
64792;BME280;51226;47.504;19.074;2023-03-15T03:52:22;99047.38;;;9.64;60.87
64792;BME280;51226;47.504;19.074;2023-03-15T03:55:25;99057.13;;;9.74;60.11
64792;BME280;51226;47.504;19.074;2023-03-15T03:58:28;99048.22;;;9.64;60.31
64792;BME280;51226;47.504;19.074;2023-03-15T04:01:32;99055.94;;;9.60;60.38
64792;BME280;51226;47.504;19.074;2023-03-15T04:04:35;99045.75;;;9.71;59.27
64792;BME280;51226;47.504;19.074;2023-03-15T04:07:39;99050.06;;;9.70;59.19
64792;BME280;51226;47.504;19.074;2023-03-15T04:10:44;99043.09;;;9.68;59.00
64792;BME280;51226;47.504;19.074;2023-03-15T04:13:47;99049.13;;;9.67;58.93
64792;BME280;51226;47.504;19.074;2023-03-15T04:16:51;99050.88;;;9.66;58.60
64792;BME280;51226;47.504;19.074;2023-03-15T04:19:54;99054.31;;;9.65;58.28
64792;BME280;51226;47.504;19.074;2023-03-15T04:22:58;99063.72;;;9.58;58.53
64792;BME280;51226;47.504;19.074;2023-03-15T04:26:01;99061.31;;;9.68;58.06
64792;BME280;51226;47.504;19.074;2023-03-15T04:29:05;99061.34;;;9.69;57.50
64792;BME280;51226;47.504;19.074;2023-03-15T04:32:09;99064.09;;;9.77;57.14
64792;BME280;51226;47.504;19.074;2023-03-15T04:35:14;99079.56;;;9.69;57.82
64792;BME280;51226;47.504;19.074;2023-03-15T04:38:17;99087.25;;;9.63;57.85
64792;BME280;51226;47.504;19.074;2023-03-15T04:41:21;99094.31;;;9.70;57.63
64792;BME280;51226;47.504;19.074;2023-03-15T04:44:25;99101.31;;;9.71;56.46
64792;BME280;51226;47.504;19.074;2023-03-15T04:47:29;99085.72;;;9.73;55.85
64792;BME280;51226;47.504;19.074;2023-03-15T04:50:33;99090.81;;;9.68;56.35
64792;BME280;51226;47.504;19.074;2023-03-15T04:53:36;99103.06;;;9.72;54.56
64792;BME280;51226;47.504;19.074;2023-03-15T04:56:40;99098.47;;;9.60;55.33
64792;BME280;51226;47.504;19.074;2023-03-15T04:59:44;99116.69;;;9.59;55.37
64792;BME280;51226;47.504;19.074;2023-03-15T05:02:47;99113.06;;;9.54;55.98
64792;BME280;51226;47.504;19.074;2023-03-15T05:05:56;99111.16;;;9.45;56.44
64792;BME280;51226;47.504;19.074;2023-03-15T05:09:00;99113.78;;;9.46;55.55
64792;BME280;51226;47.504;19.074;2023-03-15T05:12:06;99117.16;;;9.41;55.29
64792;BME280;51226;47.504;19.074;2023-03-15T05:15:09;99122.31;;;9.39;55.53
64792;BME280;51226;47.504;19.074;2023-03-15T05:18:13;99124.78;;;9.33;56.08
64792;BME280;51226;47.504;19.074;2023-03-15T05:21:16;99109.19;;;9.35;54.96
64792;BME280;51226;47.504;19.074;2023-03-15T05:24:20;99110.06;;;9.35;54.40
64792;BME280;51226;47.504;19.074;2023-03-15T05:27:23;99112.38;;;9.21;55.15
64792;BME280;51226;47.504;19.074;2023-03-15T05:30:28;99118.41;;;9.19;54.81
64792;BME280;51226;47.504;19.074;2023-03-15T05:33:31;99125.03;;;9.06;55.31
64792;BME280;51226;47.504;19.074;2023-03-15T05:36:34;99110.06;;;8.96;55.64
64792;BME280;51226;47.504;19.074;2023-03-15T05:39:40;99118.50;;;8.87;56.83
64792;BME280;51226;47.504;19.074;2023-03-15T05:42:44;99115.16;;;8.91;56.19
64792;BME280;51226;47.504;19.074;2023-03-15T05:45:48;99116.84;;;8.89;56.26
64792;BME280;51226;47.504;19.074;2023-03-15T05:48:51;99114.97;;;8.85;56.28
64792;BME280;51226;47.504;19.074;2023-03-15T05:51:58;99115.69;;;8.78;57.30
64792;BME280;51226;47.504;19.074;2023-03-15T05:55:00;99117.37;;;8.76;57.82
64792;BME280;51226;47.504;19.074;2023-03-15T05:58:04;99121.88;;;8.83;56.91
64792;BME280;51226;47.504;19.074;2023-03-15T06:01:07;99125.41;;;8.86;56.68
64792;BME280;51226;47.504;19.074;2023-03-15T06:04:12;99127.69;;;8.73;57.59
64792;BME280;51226;47.504;19.074;2023-03-15T06:07:14;99128.56;;;8.73;57.28
64792;BME280;51226;47.504;19.074;2023-03-15T06:10:18;99128.66;;;8.76;57.46
64792;BME280;51226;47.504;19.074;2023-03-15T06:13:21;99144.19;;;8.75;57.70
64792;BME280;51226;47.504;19.074;2023-03-15T06:16:24;99150.47;;;8.83;57.30
64792;BME280;51226;47.504;19.074;2023-03-15T06:19:27;99155.72;;;8.84;57.25
64792;BME280;51226;47.504;19.074;2023-03-15T06:22:30;99162.28;;;8.70;57.66
64792;BME280;51226;47.504;19.074;2023-03-15T06:25:35;99160.50;;;8.67;57.89
64792;BME280;51226;47.504;19.074;2023-03-15T06:28:38;99164.69;;;8.62;57.85
64792;BME280;51226;47.504;19.074;2023-03-15T06:31:44;99163.41;;;8.46;59.04
64792;BME280;51226;47.504;19.074;2023-03-15T06:34:49;99170.44;;;8.50;58.51
64792;BME280;51226;47.504;19.074;2023-03-15T06:37:51;99179.84;;;8.47;58.68
64792;BME280;51226;47.504;19.074;2023-03-15T06:40:55;99167.69;;;8.44;58.62
64792;BME280;51226;47.504;19.074;2023-03-15T06:43:57;99181.19;;;8.32;58.94
64792;BME280;51226;47.504;19.074;2023-03-15T06:47:01;99174.81;;;8.21;59.58
64792;BME280;51226;47.504;19.074;2023-03-15T06:50:04;99190.47;;;8.24;59.86
64792;BME280;51226;47.504;19.074;2023-03-15T06:53:07;99181.88;;;8.27;59.62
64792;BME280;51226;47.504;19.074;2023-03-15T06:56:10;99187.38;;;8.38;58.69
64792;BME280;51226;47.504;19.074;2023-03-15T06:59:14;99188.16;;;8.35;59.03
64792;BME280;51226;47.504;19.074;2023-03-15T07:02:17;99195.19;;;8.38;59.00
64792;BME280;51226;47.504;19.074;2023-03-15T07:05:21;99198.13;;;8.50;58.29
64792;BME280;51226;47.504;19.074;2023-03-15T07:08:24;99202.31;;;8.45;58.46
64792;BME280;51226;47.504;19.074;2023-03-15T07:11:27;99212.03;;;8.50;58.09
64792;BME280;51226;47.504;19.074;2023-03-15T07:14:30;99208.59;;;8.53;58.12
64792;BME280;51226;47.504;19.074;2023-03-15T07:17:34;99210.16;;;8.46;58.42
64792;BME280;51226;47.504;19.074;2023-03-15T07:20:37;99212.97;;;8.54;57.79
64792;BME280;51226;47.504;19.074;2023-03-15T07:23:40;99212.09;;;8.53;58.12
64792;BME280;51226;47.504;19.074;2023-03-15T07:26:43;99226.75;;;8.51;57.87
64792;BME280;51226;47.504;19.074;2023-03-15T07:29:46;99221.56;;;8.51;58.04
64792;BME280;51226;47.504;19.074;2023-03-15T07:32:50;99226.81;;;8.53;57.22
64792;BME280;51226;47.504;19.074;2023-03-15T07:35:53;99228.50;;;8.51;57.44
64792;BME280;51226;47.504;19.074;2023-03-15T07:38:56;99237.06;;;8.48;57.51
64792;BME280;51226;47.504;19.074;2023-03-15T07:41:59;99230.94;;;8.46;57.68
64792;BME280;51226;47.504;19.074;2023-03-15T07:45:05;99238.97;;;8.54;57.28
64792;BME280;51226;47.504;19.074;2023-03-15T07:48:09;99247.94;;;8.65;56.19
64792;BME280;51226;47.504;19.074;2023-03-15T07:51:12;99235.94;;;8.70;56.05
64792;BME280;51226;47.504;19.074;2023-03-15T07:54:15;99241.03;;;8.66;55.55
64792;BME280;51226;47.504;19.074;2023-03-15T07:57:18;99236.72;;;8.68;55.45
64792;BME280;51226;47.504;19.074;2023-03-15T08:00:21;99243.62;;;8.66;56.04
64792;BME280;51226;47.504;19.074;2023-03-15T08:03:24;99242.75;;;8.65;55.65
64792;BME280;51226;47.504;19.074;2023-03-15T08:06:28;99245.44;;;8.70;55.76
64792;BME280;51226;47.504;19.074;2023-03-15T08:09:31;99241.47;;;8.83;54.04
64792;BME280;51226;47.504;19.074;2023-03-15T08:12:36;99256.19;;;8.82;54.15
64792;BME280;51226;47.504;19.074;2023-03-15T08:15:44;99251.72;;;8.78;54.15
64792;BME280;51226;47.504;19.074;2023-03-15T08:18:47;99250.12;;;8.83;54.00
64792;BME280;51226;47.504;19.074;2023-03-15T08:21:50;99252.66;;;8.80;53.46
64792;BME280;51226;47.504;19.074;2023-03-15T08:24:55;99256.88;;;8.77;52.91
64792;BME280;51226;47.504;19.074;2023-03-15T08:27:59;99261.47;;;8.85;52.17
64792;BME280;51226;47.504;19.074;2023-03-15T08:31:07;99279.53;;;8.81;52.71
64792;BME280;51226;47.504;19.074;2023-03-15T08:34:10;99277.87;;;8.83;51.70
64792;BME280;51226;47.504;19.074;2023-03-15T08:37:13;99270.16;;;8.86;51.40
64792;BME280;51226;47.504;19.074;2023-03-15T08:40:18;99288.19;;;8.80;51.54
64792;BME280;51226;47.504;19.074;2023-03-15T08:43:27;99290.25;;;8.93;50.66
64792;BME280;51226;47.504;19.074;2023-03-15T08:46:30;99288.19;;;8.80;51.90
64792;BME280;51226;47.504;19.074;2023-03-15T08:49:35;99299.72;;;8.89;50.50
64792;BME280;51226;47.504;19.074;2023-03-15T08:52:38;99306.87;;;8.98;50.77
64792;BME280;51226;47.504;19.074;2023-03-15T08:55:40;99319.78;;;8.95;49.85
64792;BME280;51226;47.504;19.074;2023-03-15T08:58:44;99323.19;;;8.93;50.57
64792;BME280;51226;47.504;19.074;2023-03-15T09:01:47;99332.75;;;8.94;50.90
64792;BME280;51226;47.504;19.074;2023-03-15T09:04:50;99332.19;;;9.04;49.55
64792;BME280;51226;47.504;19.074;2023-03-15T09:07:55;99345.09;;;9.01;49.74
64792;BME280;51226;47.504;19.074;2023-03-15T09:10:59;99353.53;;;8.92;50.00
64792;BME280;51226;47.504;19.074;2023-03-15T09:14:03;99359.69;;;8.96;48.61
64792;BME280;51226;47.504;19.074;2023-03-15T09:17:06;99371.62;;;8.89;49.15
64792;BME280;51226;47.504;19.074;2023-03-15T09:20:11;99365.62;;;8.92;48.92
64792;BME280;51226;47.504;19.074;2023-03-15T09:23:18;99371.62;;;8.89;49.07
64792;BME280;51226;47.504;19.074;2023-03-15T09:26:21;99384.75;;;8.94;48.38
64792;BME280;51226;47.504;19.074;2023-03-15T09:29:24;99393.53;;;8.97;49.13
64792;BME280;51226;47.504;19.074;2023-03-15T09:32:27;99387.75;;;9.07;48.33
64792;BME280;51226;47.504;19.074;2023-03-15T09:35:30;99391.91;;;9.01;48.64
64792;BME280;51226;47.504;19.074;2023-03-15T09:38:33;99406.69;;;9.03;49.09
64792;BME280;51226;47.504;19.074;2023-03-15T09:41:43;99418.00;;;9.04;48.84
64792;BME280;51226;47.504;19.074;2023-03-15T09:44:51;99420.59;;;9.04;47.88
64792;BME280;51226;47.504;19.074;2023-03-15T09:54:24;99434.56;;;9.07;48.10
64792;BME280;51226;47.504;19.074;2023-03-15T09:57:46;99433.91;;;9.15;47.37
64792;BME280;51226;47.504;19.074;2023-03-15T10:00:53;99424.31;;;9.12;47.78
64792;BME280;51226;47.504;19.074;2023-03-15T10:04:04;99425.56;;;9.26;47.22
64792;BME280;51226;47.504;19.074;2023-03-15T10:07:13;99431.53;;;9.22;47.33
64792;BME280;51226;47.504;19.074;2023-03-15T10:10:22;99423.59;;;9.18;47.98
64792;BME280;51226;47.504;19.074;2023-03-15T10:16:48;99427.59;;;9.38;46.65
64792;BME280;51226;47.504;19.074;2023-03-15T10:19:59;99434.53;;;9.38;45.73
64792;BME280;51226;47.504;19.074;2023-03-15T10:23:14;99437.94;;;9.35;46.37
64792;BME280;51226;47.504;19.074;2023-03-15T10:26:27;99441.38;;;9.34;46.37
64792;BME280;51226;47.504;19.074;2023-03-15T10:29:31;99447.50;;;9.36;46.72
64792;BME280;51226;47.504;19.074;2023-03-15T10:32:37;99444.22;;;9.43;46.06
64792;BME280;51226;47.504;19.074;2023-03-15T10:35:41;99454.72;;;9.46;46.30
64792;BME280;51226;47.504;19.074;2023-03-15T10:38:46;99462.75;;;9.54;45.48
64792;BME280;51226;47.504;19.074;2023-03-15T10:41:52;99459.47;;;9.61;46.25
64792;BME280;51226;47.504;19.074;2023-03-15T10:44:55;99460.50;;;9.68;46.37
64792;BME280;51226;47.504;19.074;2023-03-15T10:47:58;99461.56;;;9.75;45.54
64792;BME280;51226;47.504;19.074;2023-03-15T10:54:17;99464.59;;;9.92;45.03
64792;BME280;51226;47.504;19.074;2023-03-15T10:57:26;99459.63;;;10.01;44.73
64792;BME280;51226;47.504;19.074;2023-03-15T11:00:34;99466.87;;;10.13;44.87
64792;BME280;51226;47.504;19.074;2023-03-15T11:03:40;99466.56;;;10.35;43.87
64792;BME280;51226;47.504;19.074;2023-03-15T11:07:02;99466.91;;;10.49;44.01
64792;BME280;51226;47.504;19.074;2023-03-15T11:10:06;99461.22;;;10.67;43.57
64792;BME280;51226;47.504;19.074;2023-03-15T11:13:16;99464.84;;;10.74;43.96
64792;BME280;51226;47.504;19.074;2023-03-15T11:16:21;99477.59;;;11.00;42.06
64792;BME280;51226;47.504;19.074;2023-03-15T11:19:28;99482.31;;;11.18;42.27
64792;BME280;51226;47.504;19.074;2023-03-15T11:22:32;99478.78;;;11.16;42.01
64792;BME280;51226;47.504;19.074;2023-03-15T11:25:35;99469.31;;;11.21;41.96
64792;BME280;51226;47.504;19.074;2023-03-15T11:28:40;99481.72;;;11.31;42.24
64792;BME280;51226;47.504;19.074;2023-03-15T11:31:46;99483.13;;;11.59;41.34
64792;BME280;51226;47.504;19.074;2023-03-15T11:38:10;99478.13;;;11.70;40.70
64792;BME280;51226;47.504;19.074;2023-03-15T11:44:43;99482.16;;;11.98;39.04
64792;BME280;51226;47.504;19.074;2023-03-15T11:47:50;99488.28;;;12.00;39.13
64792;BME280;51226;47.504;19.074;2023-03-15T11:50:56;99480.59;;;12.10;38.05
64792;BME280;51226;47.504;19.074;2023-03-15T11:54:10;99484.91;;;12.08;39.33
64792;BME280;51226;47.504;19.074;2023-03-15T12:03:39;99495.47;;;12.14;39.69
64792;BME280;51226;47.504;19.074;2023-03-15T12:06:42;99499.09;;;12.22;39.10
64792;BME280;51226;47.504;19.074;2023-03-15T12:12:59;99501.19;;;12.41;37.30
64792;BME280;51226;47.504;19.074;2023-03-15T12:16:10;99509.12;;;12.49;36.91
64792;BME280;51226;47.504;19.074;2023-03-15T12:19:18;99502.72;;;12.30;38.91
64792;BME280;51226;47.504;19.074;2023-03-15T12:22:24;99503.81;;;12.43;36.62
64792;BME280;51226;47.504;19.074;2023-03-15T12:25:37;99512.38;;;12.34;37.43
64792;BME280;51226;47.504;19.074;2023-03-15T12:32:22;99507.34;;;12.47;37.93
64792;BME280;51226;47.504;19.074;2023-03-15T12:35:31;99510.38;;;12.74;36.83
64792;BME280;51226;47.504;19.074;2023-03-15T12:38:38;99519.28;;;12.86;36.47
64792;BME280;51226;47.504;19.074;2023-03-15T12:41:47;99515.03;;;12.94;37.00
64792;BME280;51226;47.504;19.074;2023-03-15T12:44:50;99507.38;;;13.09;34.88
64792;BME280;51226;47.504;19.074;2023-03-15T12:51:01;99517.56;;;12.88;34.43
64792;BME280;51226;47.504;19.074;2023-03-15T12:54:10;99519.94;;;12.72;34.57
64792;BME280;51226;47.504;19.074;2023-03-15T12:57:21;99518.72;;;12.49;36.59
64792;BME280;51226;47.504;19.074;2023-03-15T13:00:28;99517.84;;;12.48;35.13
64792;BME280;51226;47.504;19.074;2023-03-15T13:03:33;99525.94;;;12.64;34.17
64792;BME280;51226;47.504;19.074;2023-03-15T13:06:49;99528.63;;;12.68;33.24
64792;BME280;51226;47.504;19.074;2023-03-15T13:16:33;99542.09;;;12.38;33.33
64792;BME280;51226;47.504;19.074;2023-03-15T13:19:41;99545.56;;;12.38;33.33
64792;BME280;51226;47.504;19.074;2023-03-15T13:26:37;99563.44;;;12.14;33.65
64792;BME280;51226;47.504;19.074;2023-03-15T13:29:42;99568.00;;;12.26;32.97
64792;BME280;51226;47.504;19.074;2023-03-15T13:32:46;99567.78;;;12.13;33.50
64792;BME280;51226;47.504;19.074;2023-03-15T13:35:56;99568.78;;;12.20;33.55
64792;BME280;51226;47.504;19.074;2023-03-15T13:38:59;99568.59;;;12.11;34.08
64792;BME280;51226;47.504;19.074;2023-03-15T13:42:16;99570.28;;;12.07;33.82
64792;BME280;51226;47.504;19.074;2023-03-15T13:45:21;99579.19;;;12.17;33.37
64792;BME280;51226;47.504;19.074;2023-03-15T13:48:35;99576.56;;;12.17;32.74
64792;BME280;51226;47.504;19.074;2023-03-15T13:51:39;99586.12;;;12.15;33.09
64792;BME280;51226;47.504;19.074;2023-03-15T13:54:42;99586.19;;;12.19;32.39
64792;BME280;51226;47.504;19.074;2023-03-15T13:57:54;99585.22;;;12.14;32.51
64792;BME280;51226;47.504;19.074;2023-03-15T14:01:00;99595.59;;;12.10;32.26
64792;BME280;51226;47.504;19.074;2023-03-15T14:04:16;99594.41;;;11.94;32.45
64792;BME280;51226;47.504;19.074;2023-03-15T14:07:33;99603.00;;;11.88;32.57
64792;BME280;51226;47.504;19.074;2023-03-15T14:10:38;99608.12;;;11.83;32.19
64792;BME280;51226;47.504;19.074;2023-03-15T14:13:50;99619.28;;;11.75;32.40
64792;BME280;51226;47.504;19.074;2023-03-15T14:16:57;99618.09;;;11.60;33.15
64792;BME280;51226;47.504;19.074;2023-03-15T14:20:13;99629.94;;;11.46;33.35
64792;BME280;51226;47.504;19.074;2023-03-15T14:23:20;99626.06;;;11.27;33.29
64792;BME280;51226;47.504;19.074;2023-03-15T14:26:28;99634.66;;;11.21;32.69
64792;BME280;51226;47.504;19.074;2023-03-15T14:29:34;99638.72;;;11.10;34.50
64792;BME280;51226;47.504;19.074;2023-03-15T14:32:50;99632.72;;;11.14;32.49
64792;BME280;51226;47.504;19.074;2023-03-15T14:35:58;99635.19;;;11.08;33.14
64792;BME280;51226;47.504;19.074;2023-03-15T14:39:02;99654.84;;;10.93;33.13
64792;BME280;51226;47.504;19.074;2023-03-15T14:42:08;99657.81;;;10.74;32.78
64792;BME280;51226;47.504;19.074;2023-03-15T14:45:12;99659.34;;;10.66;34.11
64792;BME280;51226;47.504;19.074;2023-03-15T14:48:29;99654.22;;;10.69;32.65
64792;BME280;51226;47.504;19.074;2023-03-15T14:51:33;99649.63;;;10.59;33.27
64792;BME280;51226;47.504;19.074;2023-03-15T14:54:36;99655.31;;;10.44;34.17
64792;BME280;51226;47.504;19.074;2023-03-15T14:57:39;99657.34;;;10.24;34.40
64792;BME280;51226;47.504;19.074;2023-03-15T15:00:42;99653.13;;;10.29;33.62
64792;BME280;51226;47.504;19.074;2023-03-15T15:03:50;99665.97;;;10.21;33.50
64792;BME280;51226;47.504;19.074;2023-03-15T15:06:54;99678.75;;;10.12;34.42
64792;BME280;51226;47.504;19.074;2023-03-15T15:09:57;99694.31;;;10.10;33.78
64792;BME280;51226;47.504;19.074;2023-03-15T15:13:00;99688.47;;;10.17;33.47
64792;BME280;51226;47.504;19.074;2023-03-15T15:16:08;99689.88;;;10.06;33.71
64792;BME280;51226;47.504;19.074;2023-03-15T15:19:13;99715.50;;;9.91;34.62
64792;BME280;51226;47.504;19.074;2023-03-15T15:22:21;99710.13;;;9.86;34.53
64792;BME280;51226;47.504;19.074;2023-03-15T15:25:25;99718.00;;;9.88;34.33
64792;BME280;51226;47.504;19.074;2023-03-15T15:28:30;99722.53;;;9.95;33.85
64792;BME280;51226;47.504;19.074;2023-03-15T15:31:38;99723.94;;;9.83;34.00
64792;BME280;51226;47.504;19.074;2023-03-15T15:34:41;99740.31;;;9.79;34.11
64792;BME280;51226;47.504;19.074;2023-03-15T15:37:47;99734.31;;;9.82;33.80
64792;BME280;51226;47.504;19.074;2023-03-15T15:40:50;99743.84;;;9.81;33.87
64792;BME280;51226;47.504;19.074;2023-03-15T15:43:54;99744.66;;;9.80;34.49
64792;BME280;51226;47.504;19.074;2023-03-15T15:46:56;99748.59;;;9.66;35.38
64792;BME280;51226;47.504;19.074;2023-03-15T15:50:00;99758.34;;;9.73;33.65
64792;BME280;51226;47.504;19.074;2023-03-15T15:53:05;99756.28;;;9.63;33.86
64792;BME280;51226;47.504;19.074;2023-03-15T15:56:09;99760.13;;;9.74;32.91
64792;BME280;51226;47.504;19.074;2023-03-15T15:59:16;99764.00;;;9.60;33.22
64792;BME280;51226;47.504;19.074;2023-03-15T16:02:22;99768.09;;;9.52;33.19
64792;BME280;51226;47.504;19.074;2023-03-15T16:05:28;99779.03;;;9.41;33.64
64792;BME280;51226;47.504;19.074;2023-03-15T16:08:36;99766.78;;;9.37;33.63
64792;BME280;51226;47.504;19.074;2023-03-15T16:11:40;99786.63;;;9.35;33.50
64792;BME280;51226;47.504;19.074;2023-03-15T16:14:44;99789.88;;;9.28;33.47
64792;BME280;51226;47.504;19.074;2023-03-15T16:17:47;99795.87;;;9.25;33.67
64792;BME280;51226;47.504;19.074;2023-03-15T16:20:50;99788.72;;;9.20;34.11
64792;BME280;51226;47.504;19.074;2023-03-15T16:23:59;99801.72;;;9.20;33.90
64792;BME280;51226;47.504;19.074;2023-03-15T16:27:06;99801.03;;;9.24;33.05
64792;BME280;51226;47.504;19.074;2023-03-15T16:30:19;99807.88;;;9.22;32.88
64792;BME280;51226;47.504;19.074;2023-03-15T16:33:22;99815.84;;;9.01;33.41
64792;BME280;51226;47.504;19.074;2023-03-15T16:36:25;99819.31;;;9.01;32.96
64792;BME280;51226;47.504;19.074;2023-03-15T16:39:30;99817.94;;;8.87;34.24
64792;BME280;51226;47.504;19.074;2023-03-15T16:42:33;99820.19;;;9.02;33.05
64792;BME280;51226;47.504;19.074;2023-03-15T16:45:36;99830.12;;;8.88;33.36
64792;BME280;51226;47.504;19.074;2023-03-15T16:48:39;99833.75;;;8.93;33.13
64792;BME280;51226;47.504;19.074;2023-03-15T16:51:45;99844.31;;;8.74;34.15
64792;BME280;51226;47.504;19.074;2023-03-15T16:54:49;99848.59;;;8.71;33.11
64792;BME280;51226;47.504;19.074;2023-03-15T16:57:52;99860.25;;;8.59;33.15
64792;BME280;51226;47.504;19.074;2023-03-15T17:00:55;99867.81;;;8.52;34.41
64792;BME280;51226;47.504;19.074;2023-03-15T17:03:59;99873.72;;;8.48;33.50
64792;BME280;51226;47.504;19.074;2023-03-15T17:07:03;99881.25;;;8.42;34.14